createdAt,value
2023-04-27T00:00:06.473Z,28.25
2023-04-27T00:01:11.172Z,29.50
2023-04-27T00:02:13.794Z,27.50
2023-04-27T00:03:15.996Z,28.00
2023-04-27T00:04:20.899Z,24.50
2023-04-27T00:05:22.848Z,24.25
2023-04-27T00:06:26.694Z,22.25
2023-04-27T00:07:28.262Z,23.75
2023-04-27T00:08:30.761Z,22.00
2023-04-27T00:09:32.285Z,23.75
2023-04-27T00:10:34.662Z,24.50
2023-04-27T00:11:36.145Z,21.25
2023-04-27T00:12:38.618Z,23.50
2023-04-27T00:13:40.012Z,24.75
2023-04-27T00:14:42.413Z,24.75
2023-04-27T00:15:45.356Z,25.75
2023-04-27T00:16:47.863Z,20.25
2023-04-27T00:17:49.364Z,18.25
2023-04-27T00:18:52.205Z,24.75
2023-04-27T00:19:55.139Z,21.75
2023-04-27T00:20:57.772Z,23.75
2023-04-27T00:22:00.216Z,23.50
2023-04-27T00:23:02.809Z,21.00
2023-04-27T00:24:04.571Z,23.25
2023-04-27T00:25:07.567Z,24.75
2023-04-27T00:26:08.943Z,21.75
2023-04-27T00:27:13.388Z,20.50
2023-04-27T00:28:14.928Z,21.00
2023-04-27T00:29:17.472Z,20.50
2023-04-27T00:30:19.145Z,23.25
2023-04-27T00:31:21.742Z,22.50
2023-04-27T00:32:23.220Z,19.00
2023-04-27T00:33:25.702Z,22.75
2023-04-27T00:34:27.104Z,24.00
2023-04-27T00:35:30.984Z,22.00
2023-04-27T00:36:33.410Z,20.25
2023-04-27T00:37:36.132Z,21.75
2023-04-27T00:38:37.659Z,20.50
2023-04-27T00:39:40.102Z,19.00
2023-04-27T00:40:41.800Z,19.75
2023-04-27T00:41:44.211Z,22.00
2023-04-27T00:42:45.656Z,26.75
2023-04-27T00:43:48.084Z,23.00
2023-04-27T00:44:49.478Z,24.75
2023-04-27T00:45:52.003Z,22.00
2023-04-27T00:46:53.667Z,24.75
2023-04-27T00:47:56.373Z,29.00
2023-04-27T00:48:57.804Z,25.75
2023-04-27T00:50:00.234Z,27.50
2023-04-27T00:51:03.533Z,20.50
2023-04-27T00:52:07.509Z,25.75
2023-04-27T00:53:09.480Z,21.75
2023-04-27T00:54:11.899Z,25.25
2023-04-27T00:55:13.537Z,29.25
2023-04-27T00:56:16.507Z,23.50
2023-04-27T00:57:18.050Z,23.50
2023-04-27T00:58:20.561Z,27.50
2023-04-27T00:59:22.214Z,24.50
2023-04-27T01:00:24.748Z,26.50
2023-04-27T01:01:27.085Z,27.00
2023-04-27T01:02:30.266Z,25.75
2023-04-27T01:03:32.483Z,24.00
2023-04-27T01:04:35.044Z,19.75
2023-04-27T01:05:37.145Z,25.75
2023-04-27T01:06:41.398Z,24.00
2023-04-27T01:07:42.820Z,25.25
2023-04-27T01:08:47.211Z,19.50
2023-04-27T01:09:49.013Z,23.50
2023-04-27T01:10:51.405Z,22.00
2023-04-27T01:11:53.082Z,25.75
2023-04-27T01:12:55.582Z,23.50
2023-04-27T01:13:57.282Z,24.75
2023-04-27T01:15:00.180Z,19.25
2023-04-27T01:16:01.610Z,21.50
2023-04-27T01:17:04.363Z,21.00
2023-04-27T01:18:06.024Z,21.75
2023-04-27T01:19:08.848Z,21.25
2023-04-27T01:20:11.462Z,29.50
2023-04-27T01:21:14.316Z,18.75
2023-04-27T01:22:17.275Z,20.75
2023-04-27T01:23:21.014Z,20.25
2023-04-27T01:24:22.609Z,23.25
2023-04-27T01:25:25.177Z,22.50
2023-04-27T01:26:26.845Z,26.00
2023-04-27T01:27:29.316Z,25.75
2023-04-27T01:28:31.448Z,22.00
2023-04-27T01:29:33.845Z,26.50
2023-04-27T01:30:35.309Z,23.75
2023-04-27T01:31:38.084Z,21.25
2023-04-27T01:32:39.713Z,24.25
2023-04-27T01:33:42.322Z,22.75
2023-04-27T01:34:43.735Z,20.50
2023-04-27T01:35:46.281Z,18.25
2023-04-27T01:36:47.890Z,23.25
2023-04-27T01:37:50.583Z,21.00
2023-04-27T01:38:53.314Z,19.75
2023-04-27T01:39:55.946Z,21.00
2023-04-27T01:41:01.944Z,20.50
2023-04-27T01:42:04.853Z,22.50
2023-04-27T01:43:06.477Z,20.50
2023-04-27T01:44:08.898Z,23.00
2023-04-27T01:45:11.456Z,23.00
2023-04-27T01:46:14.480Z,20.75
2023-04-27T01:47:16.690Z,21.00
2023-04-27T01:48:19.472Z,20.75
2023-04-27T01:49:21.894Z,22.25
2023-04-27T01:50:24.261Z,20.75
2023-04-27T01:51:26.054Z,26.75
2023-04-27T01:52:28.671Z,24.00
2023-04-27T01:53:31.012Z,21.50
2023-04-27T01:54:34.932Z,22.00
2023-04-27T01:55:36.597Z,22.75
2023-04-27T01:56:39.225Z,21.75
2023-04-27T01:57:40.657Z,21.25
2023-04-27T01:58:43.623Z,23.25
2023-04-27T01:59:45.236Z,22.25
2023-04-27T02:00:47.935Z,21.00
2023-04-27T02:01:49.521Z,20.50
2023-04-27T02:02:53.645Z,19.00
2023-04-27T02:03:55.855Z,22.75
2023-04-27T02:04:59.087Z,23.75
2023-04-27T02:06:00.908Z,21.25
2023-04-27T02:07:03.606Z,21.25
2023-04-27T02:08:05.427Z,22.25
2023-04-27T02:09:08.171Z,21.50
2023-04-27T02:10:11.802Z,21.00
2023-04-27T02:11:14.565Z,21.00
2023-04-27T02:12:16.087Z,24.50
2023-04-27T02:13:18.630Z,21.00
2023-04-27T02:14:20.468Z,18.50
2023-04-27T02:15:22.869Z,18.25
2023-04-27T02:16:24.688Z,15.75
2023-04-27T02:17:27.249Z,18.00
2023-04-27T02:18:28.812Z,24.75
2023-04-27T02:19:31.705Z,25.25
2023-04-27T02:20:33.482Z,22.00
2023-04-27T02:21:36.246Z,23.00
2023-04-27T02:22:38.432Z,16.75
2023-04-27T02:23:40.852Z,19.25
2023-04-27T02:24:42.565Z,18.00
2023-04-27T02:25:47.007Z,19.75
2023-04-27T02:26:48.477Z,19.25
2023-04-27T02:27:51.438Z,20.50
2023-04-27T02:28:53.415Z,20.25
2023-04-27T02:29:56.707Z,18.50
2023-04-27T02:30:58.685Z,20.50
2023-04-27T02:32:01.674Z,21.25
2023-04-27T02:33:03.457Z,22.25
2023-04-27T02:34:05.927Z,23.00
2023-04-27T02:35:09.812Z,22.25
2023-04-27T02:36:12.303Z,18.25
2023-04-27T02:37:13.707Z,22.25
2023-04-27T02:38:16.105Z,22.50
2023-04-27T02:39:17.497Z,17.75
2023-04-27T02:40:20.121Z,18.00
2023-04-27T02:41:23.287Z,20.25
2023-04-27T02:42:26.140Z,20.50
2023-04-27T02:43:27.750Z,18.75
2023-04-27T02:44:30.352Z,21.50
2023-04-27T02:45:32.302Z,19.00
2023-04-27T02:46:34.835Z,17.25
2023-04-27T02:47:36.606Z,20.75
2023-04-27T02:48:39.421Z,24.75
2023-04-27T02:49:40.941Z,26.00
2023-04-27T02:50:43.843Z,24.50
2023-04-27T02:51:45.317Z,20.25
2023-04-27T02:52:47.842Z,24.75
2023-04-27T02:53:49.707Z,22.50
2023-04-27T02:54:52.392Z,21.00
2023-04-27T02:55:53.939Z,18.00
2023-04-27T02:56:58.502Z,22.50
2023-04-27T02:58:00.054Z,21.50
2023-04-27T02:59:02.558Z,18.00
2023-04-27T03:00:05.067Z,20.50
2023-04-27T03:01:07.737Z,18.75
2023-04-27T03:02:09.404Z,22.00
2023-04-27T03:03:11.951Z,27.50
2023-04-27T03:04:14.809Z,21.75
2023-04-27T03:05:17.490Z,23.00
2023-04-27T03:06:19.029Z,20.50
2023-04-27T03:07:21.765Z,20.25
2023-04-27T03:08:23.167Z,22.00
2023-04-27T03:09:25.561Z,20.00
2023-04-27T03:10:27.055Z,16.75
2023-04-27T03:11:29.520Z,23.25
2023-04-27T03:12:32.277Z,21.50
2023-04-27T03:13:41.350Z,20.00
2023-04-27T03:14:42.761Z,20.00
2023-04-27T03:15:45.138Z,20.00
2023-04-27T03:16:46.864Z,17.50
2023-04-27T03:17:49.510Z,22.50
2023-04-27T03:18:50.948Z,20.00
2023-04-27T03:19:53.344Z,23.25
2023-04-27T03:20:54.776Z,21.00
2023-04-27T03:21:57.247Z,17.50
2023-04-27T03:22:58.658Z,20.00
2023-04-27T03:24:01.039Z,20.00
2023-04-27T03:25:03.178Z,20.25
2023-04-27T03:26:08.476Z,22.00
2023-04-27T03:27:09.985Z,18.00
2023-04-27T03:28:13.715Z,21.75
2023-04-27T03:29:15.274Z,17.50
2023-04-27T03:30:17.945Z,21.50
2023-04-27T03:31:19.342Z,21.75
2023-04-27T03:32:21.876Z,23.50
2023-04-27T03:33:23.339Z,21.75
2023-04-27T03:34:25.693Z,19.75
2023-04-27T03:35:27.508Z,23.00
2023-04-27T03:36:29.904Z,21.75
2023-04-27T03:37:32.736Z,24.00
2023-04-27T03:38:35.512Z,22.00
2023-04-27T03:39:36.965Z,20.50
2023-04-27T03:40:39.577Z,22.75
2023-04-27T03:41:41.036Z,25.25
2023-04-27T03:42:43.520Z,26.25
2023-04-27T03:43:47.505Z,22.50
2023-04-27T03:44:49.879Z,21.50
2023-04-27T03:45:51.757Z,21.75
2023-04-27T03:46:54.149Z,19.50
2023-04-27T03:47:55.748Z,19.25
2023-04-27T03:48:58.159Z,17.25
2023-04-27T03:49:59.708Z,19.50
2023-04-27T03:51:02.064Z,22.75
2023-04-27T03:52:03.630Z,21.25
2023-04-27T03:53:06.708Z,20.50
2023-04-27T03:54:08.134Z,23.50
2023-04-27T03:55:10.705Z,20.00
2023-04-27T03:56:12.110Z,21.25
2023-04-27T03:57:14.495Z,22.25
2023-04-27T03:58:17.445Z,19.75
2023-04-27T03:59:21.419Z,21.75
2023-04-27T04:00:22.842Z,19.25
2023-04-27T04:01:25.264Z,19.25
2023-04-27T04:02:26.896Z,19.50
2023-04-27T04:03:29.857Z,22.75
2023-04-27T04:04:31.679Z,25.00
2023-04-27T04:05:34.311Z,18.50
2023-04-27T04:06:36.324Z,20.25
2023-04-27T04:07:38.703Z,21.75
2023-04-27T04:08:40.159Z,25.25
2023-04-27T04:09:43.334Z,30.75
2023-04-27T04:10:44.748Z,24.50
2023-04-27T04:11:47.115Z,24.25
2023-04-27T04:12:48.516Z,30.50
2023-04-27T04:13:51.128Z,27.50
2023-04-27T04:14:53.895Z,27.50
2023-04-27T04:16:02.946Z,30.25
2023-04-27T04:17:04.465Z,30.50
2023-04-27T04:18:06.861Z,30.50
2023-04-27T04:19:08.596Z,44.50
2023-04-27T04:20:11.623Z,38.50
2023-04-27T04:21:13.016Z,32.00
2023-04-27T04:22:15.436Z,27.50
2023-04-27T04:23:16.857Z,28.00
2023-04-27T04:24:19.287Z,26.25
2023-04-27T04:25:20.834Z,27.75
2023-04-27T04:26:23.461Z,30.50
2023-04-27T04:27:24.878Z,35.00
2023-04-27T04:28:27.453Z,25.00
2023-04-27T04:29:28.900Z,31.75
2023-04-27T04:30:33.244Z,31.75
2023-04-27T04:31:34.725Z,22.25
2023-04-27T04:32:38.597Z,24.00
2023-04-27T04:33:39.984Z,22.75
2023-04-27T04:34:42.387Z,20.25
2023-04-27T04:35:43.822Z,20.50
2023-04-27T04:36:46.177Z,20.75
2023-04-27T04:37:47.593Z,19.75
2023-04-27T04:38:49.967Z,22.50
2023-04-27T04:39:51.388Z,23.75
2023-04-27T04:40:53.806Z,32.25
2023-04-27T04:41:55.297Z,27.75
2023-04-27T04:42:57.766Z,28.00
2023-04-27T04:43:59.609Z,24.25
2023-04-27T04:45:02.217Z,27.50
2023-04-27T04:46:06.284Z,25.00
2023-04-27T04:47:09.911Z,23.25
2023-04-27T04:48:12.411Z,30.25
2023-04-27T04:49:13.927Z,24.50
2023-04-27T04:50:16.644Z,25.00
2023-04-27T04:51:18.035Z,23.50
2023-04-27T04:52:20.380Z,28.50
2023-04-27T04:53:21.821Z,24.50
2023-04-27T04:54:24.230Z,27.25
2023-04-27T04:55:26.137Z,27.75
2023-04-27T04:56:28.502Z,22.50
2023-04-27T04:57:30.213Z,23.00
2023-04-27T04:58:32.604Z,24.00
2023-04-27T04:59:34.132Z,24.00
2023-04-27T05:00:36.901Z,25.25
2023-04-27T05:01:39.672Z,24.00
2023-04-27T05:02:42.333Z,26.75
2023-04-27T05:03:44.058Z,22.25
2023-04-27T05:04:46.684Z,24.75
2023-04-27T05:05:48.319Z,27.75
2023-04-27T05:06:50.674Z,25.00
2023-04-27T05:07:52.070Z,26.50
2023-04-27T05:08:54.448Z,27.00
2023-04-27T05:09:55.898Z,22.75
2023-04-27T05:10:58.411Z,34.00
2023-04-27T05:12:01.715Z,25.75
2023-04-27T05:13:06.490Z,27.00
2023-04-27T05:14:08.539Z,24.25
2023-04-27T05:15:11.311Z,27.00
2023-04-27T05:16:12.852Z,27.00
2023-04-27T05:17:16.612Z,25.50
2023-04-27T05:18:18.052Z,24.50
2023-04-27T05:19:20.806Z,25.00
2023-04-27T05:20:23.226Z,24.00
2023-04-27T05:21:24.735Z,30.00
2023-04-27T05:22:27.604Z,20.50
2023-04-27T05:23:28.991Z,23.25
2023-04-27T05:24:31.351Z,26.00
2023-04-27T05:25:32.819Z,24.50
2023-04-27T05:26:35.382Z,29.00
2023-04-27T05:27:36.777Z,22.50
2023-04-27T05:28:39.148Z,20.00
2023-04-27T05:29:41.043Z,30.75
2023-04-27T05:30:43.427Z,25.75
2023-04-27T05:31:44.915Z,27.50
2023-04-27T05:32:49.052Z,27.00
2023-04-27T05:33:50.463Z,27.50
2023-04-27T05:34:52.930Z,25.50
2023-04-27T05:35:54.773Z,27.50
2023-04-27T05:36:57.934Z,25.75
2023-04-27T05:38:01.288Z,27.50
2023-04-27T05:39:02.692Z,31.00
2023-04-27T05:40:09.169Z,30.75
2023-04-27T05:41:10.584Z,30.00
2023-04-27T05:42:13.374Z,34.75
2023-04-27T05:43:14.863Z,28.75
2023-04-27T05:44:18.142Z,34.75
2023-04-27T05:45:19.764Z,34.75
2023-04-27T05:46:22.380Z,30.75
2023-04-27T05:47:24.055Z,31.25
2023-04-27T05:48:27.911Z,33.50
2023-04-27T05:49:29.468Z,28.50
2023-04-27T05:50:31.892Z,35.50
2023-04-27T05:51:33.470Z,29.75
2023-04-27T05:52:37.630Z,30.25
2023-04-27T05:53:39.725Z,26.00
2023-04-27T05:54:42.416Z,30.00
2023-04-27T05:55:43.885Z,24.75
2023-04-27T05:56:46.252Z,25.25
2023-04-27T05:57:57.169Z,25.00
2023-04-27T05:59:06.945Z,25.75
2023-04-27T06:00:10.586Z,23.75
2023-04-27T06:01:13.377Z,25.50
2023-04-27T06:02:14.854Z,21.75
2023-04-27T06:03:17.643Z,25.00
2023-04-27T06:04:21.854Z,21.75
2023-04-27T06:05:23.692Z,23.25
2023-04-27T06:06:26.408Z,22.00
2023-04-27T06:07:27.923Z,25.75
2023-04-27T06:08:31.061Z,25.00
2023-04-27T06:09:32.494Z,22.25
2023-04-27T06:10:35.497Z,24.00
2023-04-27T06:11:37.477Z,20.50
2023-04-27T06:12:40.318Z,27.00
2023-04-27T06:13:44.993Z,27.25
2023-04-27T06:14:47.122Z,27.75
2023-04-27T06:15:49.947Z,25.00
2023-04-27T06:16:52.967Z,28.00
2023-04-27T06:17:54.456Z,26.50
2023-04-27T06:18:57.480Z,25.25
2023-04-27T06:20:00.470Z,26.25
2023-04-27T06:21:02.894Z,21.50
2023-04-27T06:22:05.433Z,24.75
2023-04-27T06:23:07.200Z,26.75
2023-04-27T06:24:10.233Z,23.50
2023-04-27T06:25:11.751Z,24.00
2023-04-27T06:26:14.322Z,20.50
2023-04-27T06:27:16.033Z,22.50
2023-04-27T06:28:19.973Z,23.25
2023-04-27T06:29:22.538Z,23.75
2023-04-27T06:30:26.697Z,24.00
2023-04-27T06:31:29.609Z,23.75
2023-04-27T06:32:31.079Z,20.00
2023-04-27T06:33:33.772Z,25.75
2023-04-27T06:34:36.872Z,20.00
2023-04-27T06:35:44.529Z,21.50
2023-04-27T06:36:53.897Z,29.00
2023-04-27T06:37:58.714Z,27.25
2023-04-27T06:39:02.032Z,21.00
2023-04-27T06:40:03.821Z,23.25
2023-04-27T06:41:06.629Z,23.50
2023-04-27T06:42:08.022Z,23.50
2023-04-27T06:43:10.448Z,24.50
2023-04-27T06:44:11.853Z,25.25
2023-04-27T06:45:14.259Z,26.50
2023-04-27T06:46:16.834Z,30.00
2023-04-27T06:47:18.275Z,33.25
2023-04-27T06:48:20.714Z,26.75
2023-04-27T06:49:22.181Z,21.25
2023-04-27T06:50:24.649Z,24.25
2023-04-27T06:51:27.420Z,22.25
2023-04-27T06:52:29.806Z,20.00
2023-04-27T06:53:32.456Z,22.25
2023-04-27T06:54:33.871Z,19.25
2023-04-27T06:55:36.402Z,18.00
2023-04-27T06:56:37.828Z,24.25
2023-04-27T06:57:40.312Z,23.25
2023-04-27T06:58:41.718Z,21.75
2023-04-27T06:59:44.209Z,18.75
2023-04-27T07:00:46.771Z,18.25
2023-04-27T07:01:48.305Z,22.75
2023-04-27T07:02:51.445Z,19.75
2023-04-27T07:03:54.170Z,19.25
2023-04-27T07:04:55.935Z,20.75
2023-04-27T07:05:59.235Z,23.75
2023-04-27T07:07:01.977Z,23.00
2023-04-27T07:08:07.892Z,22.00
2023-04-27T07:09:26.176Z,17.75
2023-04-27T07:10:30.001Z,19.00
2023-04-27T07:11:31.638Z,19.00
2023-04-27T07:12:34.169Z,22.00
2023-04-27T07:13:35.813Z,20.75
2023-04-27T07:14:38.371Z,22.00
2023-04-27T07:15:39.779Z,19.25
2023-04-27T07:16:44.258Z,20.00
2023-04-27T07:17:46.706Z,17.00
2023-04-27T07:18:48.125Z,19.25
2023-04-27T07:19:50.527Z,16.25
2023-04-27T07:20:52.061Z,21.50
2023-04-27T07:21:54.528Z,16.00
2023-04-27T07:22:58.483Z,16.50
2023-04-27T07:24:00.041Z,21.00
2023-04-27T07:25:02.466Z,19.00
2023-04-27T07:26:05.113Z,17.00
2023-04-27T07:27:08.242Z,18.75
2023-04-27T07:28:09.881Z,22.50
2023-04-27T07:29:25.416Z,22.75
2023-04-27T07:30:30.704Z,27.50
2023-04-27T07:31:33.817Z,16.25
2023-04-27T07:32:35.441Z,18.75
2023-04-27T07:33:38.351Z,22.50
2023-04-27T07:34:52.125Z,19.00
2023-04-27T07:35:56.754Z,26.50
2023-04-27T07:36:58.236Z,22.50
2023-04-27T07:38:03.071Z,17.50
2023-04-27T07:39:04.590Z,20.50
2023-04-27T07:40:11.049Z,20.00
2023-04-27T07:41:12.502Z,21.75
2023-04-27T07:42:15.249Z,21.50
2023-04-27T07:43:17.896Z,20.75
2023-04-27T07:44:20.729Z,24.50
2023-04-27T07:45:23.122Z,22.75
2023-04-27T07:46:26.305Z,17.75
2023-04-27T07:47:28.769Z,20.75
2023-04-27T07:48:30.830Z,19.75
2023-04-27T07:49:34.948Z,20.75
2023-04-27T07:50:37.428Z,18.50
2023-04-27T07:51:38.828Z,19.50
2023-04-27T07:52:41.202Z,17.25
2023-04-27T07:53:45.003Z,19.00
2023-04-27T07:54:49.054Z,21.00
2023-04-27T07:55:51.444Z,19.25
2023-04-27T07:56:54.648Z,22.50
2023-04-27T07:57:56.386Z,22.50
2023-04-27T07:58:59.017Z,18.00
2023-04-27T08:00:02.396Z,22.25
2023-04-27T08:01:03.946Z,17.00
2023-04-27T08:02:17.764Z,21.75
2023-04-27T08:03:23.109Z,24.75
2023-04-27T08:04:26.387Z,18.75
2023-04-27T08:05:28.797Z,18.50
2023-04-27T08:06:32.154Z,19.75
2023-04-27T08:07:39.523Z,18.00
2023-04-27T08:08:46.368Z,21.75
2023-04-27T08:09:51.554Z,18.25
2023-04-27T08:10:54.161Z,20.50
2023-04-27T08:11:55.671Z,21.50
2023-04-27T08:12:58.219Z,23.25
2023-04-27T08:14:00.948Z,20.50
2023-04-27T08:15:03.565Z,23.00
2023-04-27T08:16:07.449Z,25.50
2023-04-27T08:17:09.271Z,20.00
2023-04-27T08:18:11.781Z,19.50
2023-04-27T08:19:13.503Z,19.00
2023-04-27T08:20:16.489Z,21.00
2023-04-27T08:21:18.224Z,22.25
2023-04-27T08:22:20.787Z,22.50
2023-04-27T08:23:23.845Z,21.75
2023-04-27T08:24:27.044Z,20.75
2023-04-27T08:25:30.054Z,22.75
2023-04-27T08:26:31.849Z,20.00
2023-04-27T08:27:34.639Z,20.00
2023-04-27T08:28:36.095Z,19.50
2023-04-27T08:29:38.511Z,19.25
2023-04-27T08:30:42.991Z,17.00
2023-04-27T08:31:44.874Z,19.50
2023-04-27T08:32:48.218Z,23.00
2023-04-27T08:33:50.700Z,17.75
2023-04-27T08:34:53.430Z,24.00
2023-04-27T08:35:55.142Z,25.00
2023-04-27T08:36:57.820Z,25.00
2023-04-27T08:38:00.342Z,28.25
2023-04-27T08:39:06.196Z,22.25
2023-04-27T08:40:11.207Z,18.50
2023-04-27T08:41:21.979Z,24.00
2023-04-27T08:42:25.214Z,21.50
2023-04-27T08:43:27.569Z,21.50
2023-04-27T08:44:31.308Z,22.75
2023-04-27T08:45:32.886Z,21.00
2023-04-27T08:46:35.673Z,23.75
2023-04-27T08:47:43.374Z,18.50
2023-04-27T08:48:46.181Z,19.75
2023-04-27T08:49:48.694Z,21.75
2023-04-27T08:50:50.876Z,21.25
2023-04-27T08:51:53.846Z,27.00
2023-04-27T08:52:55.754Z,19.50
2023-04-27T08:53:59.351Z,22.25
2023-04-27T08:55:00.809Z,17.75
2023-04-27T08:56:04.942Z,19.00
2023-04-27T08:57:12.083Z,18.00
2023-04-27T08:58:13.568Z,17.00
2023-04-27T08:59:17.885Z,20.25
2023-04-27T09:00:21.546Z,19.75
2023-04-27T09:01:26.546Z,22.75
2023-04-27T09:02:31.446Z,24.50
2023-04-27T09:03:35.536Z,20.75
2023-04-27T09:04:39.841Z,18.00
2023-04-27T09:06:00.697Z,19.00
2023-04-27T09:07:13.421Z,18.00
2023-04-27T09:08:15.246Z,19.50
2023-04-27T09:09:24.454Z,24.50
2023-04-27T09:10:26.030Z,21.75
2023-04-27T09:11:34.078Z,21.50
2023-04-27T09:12:36.613Z,19.25
2023-04-27T09:13:38.666Z,21.75
2023-04-27T09:14:41.393Z,18.75
2023-04-27T09:15:45.045Z,21.25
2023-04-27T09:16:59.695Z,18.25
2023-04-27T09:18:02.413Z,21.00
2023-04-27T09:19:04.395Z,19.75
2023-04-27T09:20:12.868Z,20.50
2023-04-27T09:21:23.608Z,21.00
2023-04-27T09:22:25.483Z,20.50
2023-04-27T09:23:29.055Z,18.00
2023-04-27T09:24:30.950Z,27.00
2023-04-27T09:25:33.494Z,22.50
2023-04-27T09:26:37.197Z,17.00
2023-04-27T09:27:40.160Z,20.25
2023-04-27T09:28:43.373Z,21.00
2023-04-27T09:29:45.217Z,20.00
2023-04-27T09:30:52.979Z,19.50
2023-04-27T09:31:54.448Z,19.00
2023-04-27T09:32:57.871Z,18.00
2023-04-27T09:34:00.566Z,21.00
2023-04-27T09:35:02.037Z,17.50
2023-04-27T09:36:05.115Z,17.25
2023-04-27T09:37:06.711Z,18.75
2023-04-27T09:38:09.636Z,22.00
2023-04-27T09:39:11.800Z,18.25
2023-04-27T09:40:14.927Z,20.00
2023-04-27T09:41:20.368Z,20.25
2023-04-27T09:42:23.502Z,18.75
2023-04-27T09:43:27.672Z,18.75
2023-04-27T09:44:29.332Z,17.50
2023-04-27T09:45:32.305Z,21.75
2023-04-27T09:46:35.438Z,20.00
2023-04-27T09:47:37.476Z,21.75
2023-04-27T09:48:40.355Z,17.25
2023-04-27T09:49:42.345Z,19.00
2023-04-27T09:50:45.363Z,19.50
2023-04-27T09:51:47.305Z,19.00
2023-04-27T09:52:50.301Z,17.25
2023-04-27T09:53:58.077Z,26.50
2023-04-27T09:55:01.066Z,19.00
2023-04-27T09:56:10.364Z,18.50
2023-04-27T09:57:15.690Z,17.50
2023-04-27T09:58:27.774Z,18.50
2023-04-27T09:59:37.291Z,17.75
2023-04-27T10:00:49.924Z,23.50
2023-04-27T10:01:51.706Z,19.50
2023-04-27T10:02:58.893Z,22.50
2023-04-27T10:04:04.344Z,21.75
2023-04-27T10:05:16.630Z,19.00
2023-04-27T10:06:37.573Z,18.75
2023-04-27T10:07:41.610Z,19.75
2023-04-27T10:08:43.279Z,18.00
2023-04-27T10:09:47.048Z,17.50
2023-04-27T10:10:50.056Z,17.50
2023-04-27T10:11:51.979Z,20.50
2023-04-27T10:12:58.187Z,18.00
2023-04-27T10:14:06.080Z,20.00
2023-04-27T10:15:18.412Z,17.00
2023-04-27T10:16:21.579Z,15.75
2023-04-27T10:17:27.862Z,16.00
2023-04-27T10:18:29.544Z,18.75
2023-04-27T10:19:32.352Z,17.25
2023-04-27T10:20:38.207Z,21.25
2023-04-27T10:21:52.496Z,20.50
2023-04-27T10:22:55.264Z,20.00
2023-04-27T10:23:57.670Z,16.75
2023-04-27T10:24:59.105Z,16.00
2023-04-27T10:26:07.733Z,16.25
2023-04-27T10:27:11.676Z,16.50
2023-04-27T10:28:15.463Z,16.50
2023-04-27T10:29:20.414Z,15.75
2023-04-27T10:30:22.908Z,17.25
2023-04-27T10:31:28.396Z,17.75
2023-04-27T10:32:30.987Z,15.25
2023-04-27T10:33:32.621Z,15.50
2023-04-27T10:34:35.540Z,15.75
2023-04-27T10:35:38.206Z,17.50
2023-04-27T10:36:40.755Z,15.50
2023-04-27T10:37:43.594Z,16.00
2023-04-27T10:38:46.121Z,17.75
2023-04-27T10:39:49.593Z,26.75
2023-04-27T10:40:56.525Z,23.75
2023-04-27T10:41:58.955Z,27.50
2023-04-27T10:43:09.019Z,27.25
2023-04-27T10:44:15.935Z,22.75
2023-04-27T10:45:31.425Z,26.00
2023-04-27T10:46:36.284Z,20.00
2023-04-27T10:47:39.508Z,17.25
2023-04-27T10:48:41.887Z,17.75
2023-04-27T10:49:44.668Z,19.00
2023-04-27T10:50:48.055Z,19.50
2023-04-27T10:51:50.318Z,21.00
2023-04-27T10:52:53.193Z,26.75
2023-04-27T10:53:55.930Z,23.50
2023-04-27T10:54:58.015Z,16.50
2023-04-27T10:56:01.100Z,21.50
2023-04-27T10:57:04.000Z,17.00
2023-04-27T10:58:07.073Z,14.25
2023-04-27T10:59:08.804Z,14.00
2023-04-27T11:00:16.248Z,15.50
2023-04-27T11:01:25.172Z,19.75
2023-04-27T11:02:28.562Z,18.75
2023-04-27T11:03:31.660Z,25.00
2023-04-27T11:04:36.975Z,22.25
2023-04-27T11:05:39.639Z,18.75
2023-04-27T11:06:45.949Z,15.50
2023-04-27T11:07:47.931Z,15.75
2023-04-27T11:08:50.348Z,16.75
2023-04-27T11:09:51.922Z,20.00
2023-04-27T11:10:54.341Z,18.75
2023-04-27T11:11:56.752Z,16.25
2023-04-27T11:12:58.980Z,17.25
2023-04-27T11:14:03.409Z,17.75
2023-04-27T11:15:05.389Z,16.25
2023-04-27T11:16:08.176Z,16.50
2023-04-27T11:17:13.324Z,16.25
2023-04-27T11:18:16.577Z,17.00
2023-04-27T11:19:19.034Z,16.50
2023-04-27T11:20:25.261Z,13.75
2023-04-27T11:21:28.447Z,17.50
2023-04-27T11:22:30.870Z,17.00
2023-04-27T11:23:36.973Z,16.75
2023-04-27T11:24:46.818Z,20.50
2023-04-27T11:25:49.237Z,19.25
2023-04-27T11:26:52.649Z,17.00
2023-04-27T11:27:54.084Z,15.50
2023-04-27T11:29:00.594Z,16.25
2023-04-27T11:30:02.218Z,17.25
2023-04-27T11:31:05.402Z,17.50
2023-04-27T11:32:08.052Z,18.00
2023-04-27T11:33:10.886Z,15.50
2023-04-27T11:34:16.377Z,17.00
2023-04-27T11:35:18.292Z,17.75
2023-04-27T11:36:21.625Z,17.00
2023-04-27T11:37:24.179Z,18.25
2023-04-27T11:38:27.558Z,18.50
2023-04-27T11:39:30.126Z,17.25
2023-04-27T11:40:32.384Z,17.25
2023-04-27T11:41:34.951Z,18.25
2023-04-27T11:42:36.406Z,16.00
2023-04-27T11:43:41.046Z,17.50
2023-04-27T11:44:42.637Z,14.25
2023-04-27T11:45:45.185Z,16.75
2023-04-27T11:46:47.518Z,17.00
2023-04-27T11:47:50.039Z,18.50
2023-04-27T11:48:54.379Z,17.00
2023-04-27T11:49:56.170Z,15.75
2023-04-27T11:50:59.074Z,15.75
2023-04-27T11:52:00.964Z,15.25
2023-04-27T11:53:03.425Z,18.25
2023-04-27T11:54:05.275Z,16.25
2023-04-27T11:55:09.240Z,18.25
2023-04-27T11:56:10.975Z,19.00
2023-04-27T11:57:13.541Z,16.75
2023-04-27T11:58:16.129Z,18.25
2023-04-27T11:59:19.114Z,16.25
2023-04-27T12:00:21.621Z,14.50
2023-04-27T12:01:34.766Z,16.75
2023-04-27T12:02:40.426Z,15.75
2023-04-27T12:03:43.077Z,13.50
2023-04-27T12:04:47.818Z,16.00
2023-04-27T12:05:49.952Z,15.50
2023-04-27T12:06:52.534Z,15.00
2023-04-27T12:07:55.001Z,16.50
2023-04-27T12:08:57.153Z,15.75
2023-04-27T12:10:00.864Z,17.50
2023-04-27T12:11:03.766Z,13.75
2023-04-27T12:12:06.623Z,17.75
2023-04-27T12:13:08.166Z,17.75
2023-04-27T12:14:11.345Z,20.75
2023-04-27T12:15:12.980Z,15.25
2023-04-27T12:16:15.597Z,16.75
2023-04-27T12:17:17.185Z,16.00
2023-04-27T12:18:20.717Z,16.25
2023-04-27T12:19:24.287Z,17.50
2023-04-27T12:20:28.165Z,16.00
2023-04-27T12:21:32.171Z,17.75
2023-04-27T12:22:34.622Z,18.75
2023-04-27T12:23:36.353Z,17.50
2023-04-27T12:24:38.765Z,14.75
2023-04-27T12:25:41.594Z,13.75
2023-04-27T12:26:43.987Z,16.75
2023-04-27T12:27:47.754Z,14.50
2023-04-27T12:28:50.183Z,15.50
2023-04-27T12:29:54.091Z,13.75
2023-04-27T12:30:55.551Z,17.25
2023-04-27T12:31:58.156Z,13.00
2023-04-27T12:33:00.818Z,14.25
2023-04-27T12:34:03.312Z,13.25
2023-04-27T12:35:06.241Z,13.00
2023-04-27T12:36:09.160Z,13.00
2023-04-27T12:37:11.941Z,15.25
2023-04-27T12:38:13.377Z,16.00
2023-04-27T12:39:16.529Z,15.50
2023-04-27T12:40:18.985Z,17.75
2023-04-27T12:41:20.384Z,16.25
2023-04-27T12:42:24.144Z,15.00
2023-04-27T12:43:26.532Z,14.75
2023-04-27T12:44:28.996Z,15.25
2023-04-27T12:45:30.686Z,14.50
2023-04-27T12:46:33.205Z,14.50
2023-04-27T12:48:41.154Z,16.25
2023-04-27T12:49:43.629Z,14.75
2023-04-27T12:50:45.049Z,17.75
2023-04-27T12:51:51.639Z,16.00
2023-04-27T12:52:53.177Z,15.00
2023-04-27T12:53:55.549Z,18.75
2023-04-27T12:54:59.244Z,15.25
2023-04-27T12:56:02.409Z,16.00
2023-04-27T12:57:06.420Z,13.75
2023-04-27T12:58:11.846Z,13.75
2023-04-27T12:59:13.240Z,16.50
2023-04-27T13:00:15.996Z,14.25
2023-04-27T13:01:19.870Z,16.75
2023-04-27T13:02:21.379Z,15.00
2023-04-27T13:03:24.113Z,15.75
2023-04-27T13:04:25.813Z,17.50
2023-04-27T13:05:30.552Z,15.00
2023-04-27T13:06:34.579Z,18.25
2023-04-27T13:07:37.683Z,16.25
2023-04-27T13:08:40.992Z,13.25
2023-04-27T13:09:42.413Z,13.25
2023-04-27T13:10:44.957Z,18.75
2023-04-27T13:11:46.382Z,15.50
2023-04-27T13:12:49.721Z,14.00
2023-04-27T13:13:51.311Z,14.50
2023-04-27T13:14:53.766Z,14.00
2023-04-27T13:15:56.677Z,16.75
2023-04-27T13:16:59.290Z,13.50
2023-04-27T13:18:01.803Z,14.00
2023-04-27T13:19:04.394Z,15.50
2023-04-27T13:20:07.252Z,14.50
2023-04-27T13:21:09.901Z,13.75
2023-04-27T13:22:12.360Z,14.75
2023-04-27T13:23:16.087Z,13.25
2023-04-27T13:24:18.706Z,15.75
2023-04-27T13:25:21.378Z,17.25
2023-04-27T13:26:23.069Z,14.50
2023-04-27T13:27:28.870Z,13.00
2023-04-27T13:28:31.644Z,16.00
2023-04-27T13:29:34.316Z,15.25
2023-04-27T13:30:35.737Z,14.75
2023-04-27T13:31:38.676Z,16.50
2023-04-27T13:32:40.710Z,15.00